Terminal Aerodrome Forecast
Issued by NWS Melbourne, FL

Home | Current Version | Previous Version | Text Only | Print | Product List | Glossary On
Versions: 1 2 3 4 5 6 7 8 9 10 11 12 13 14 15 16 17 18 19 20 21 22 23 24 25 26 27
000
FTUS42 KMLB 232300
TAFMCO
TAF
KMCO 232340Z 2400/2424 29005KT P6SM SCT060
     FM240200 20003KT P6SM SKC
      TEMPO 2410/2412 5SM BR FEW015
     FM241500 15007KT P6SM FEW040=

USA.gov is the U.S. government's official web portal to all federal, state and local government web resources and services.